createdAt,value
2022-08-16T00:01:18.584Z,99.90
2022-08-16T00:03:46.459Z,99.90
2022-08-16T00:06:15.613Z,99.90
2022-08-16T00:08:45.879Z,99.90
2022-08-16T00:11:16.521Z,99.90
2022-08-16T00:13:54.276Z,99.90
2022-08-16T00:17:06.636Z,99.90
2022-08-16T00:19:13.577Z,99.90
2022-08-16T00:21:43.271Z,99.90
2022-08-16T00:24:12.296Z,99.90
2022-08-16T00:26:44.197Z,99.90
2022-08-16T00:29:15.373Z,99.90
2022-08-16T00:31:59.398Z,99.90
2022-08-16T00:34:44.551Z,99.90
2022-08-16T00:37:20.813Z,99.90
2022-08-16T00:39:58.618Z,99.90
2022-08-16T00:42:31.385Z,99.90
2022-08-16T00:45:09.545Z,99.90
2022-08-16T00:47:49.556Z,99.90
2022-08-16T00:50:20.054Z,99.90
2022-08-16T00:52:50.815Z,99.90
2022-08-16T00:55:22.062Z,99.90
2022-08-16T00:58:00.176Z,99.90
2022-08-16T01:00:31.402Z,99.90
2022-08-16T01:03:03.951Z,99.90
2022-08-16T01:05:33.579Z,99.90
2022-08-16T01:08:35.230Z,99.90
2022-08-16T01:10:53.137Z,99.90
2022-08-16T01:13:23.847Z,99.90
2022-08-16T01:15:57.632Z,99.90
2022-08-16T01:18:39.814Z,99.90
2022-08-16T01:21:22.801Z,99.90
2022-08-16T01:24:51.599Z,99.90
2022-08-16T01:27:04.045Z,99.90
2022-08-16T01:29:56.971Z,99.90
2022-08-16T01:32:31.937Z,99.90
2022-08-16T01:35:05.904Z,99.90
2022-08-16T01:37:42.352Z,99.90
2022-08-16T01:40:13.232Z,99.90
2022-08-16T01:42:44.279Z,99.90
2022-08-16T01:45:16.794Z,99.90
2022-08-16T01:47:51.007Z,99.90
2022-08-16T01:50:42.768Z,99.90
2022-08-16T01:53:10.936Z,99.90
2022-08-16T01:55:41.484Z,99.90
2022-08-16T01:58:10.687Z,99.90
2022-08-16T02:00:40.263Z,99.90
2022-08-16T02:03:08.372Z,99.90
2022-08-16T02:05:46.609Z,99.90
2022-08-16T02:08:33.502Z,99.90
2022-08-16T02:11:05.073Z,99.90
2022-08-16T02:13:33.416Z,99.90
2022-08-16T02:16:01.258Z,99.90
2022-08-16T02:18:29.190Z,99.90
2022-08-16T02:20:57.278Z,99.90
2022-08-16T02:23:27.276Z,99.90
2022-08-16T02:25:57.516Z,99.90
2022-08-16T02:28:28.734Z,99.90
2022-08-16T02:31:00.439Z,99.90
2022-08-16T02:33:43.864Z,99.90
2022-08-16T02:36:50.725Z,99.90
2022-08-16T02:39:07.248Z,99.90
2022-08-16T02:41:39.327Z,99.90
2022-08-16T02:44:11.136Z,99.90
2022-08-16T02:46:50.379Z,99.90
2022-08-16T02:49:19.272Z,99.90
2022-08-16T02:51:48.262Z,99.90
2022-08-16T02:54:18.096Z,99.90
2022-08-16T02:56:47.892Z,99.90
2022-08-16T02:59:17.268Z,99.90
2022-08-16T03:01:47.077Z,99.90
2022-08-16T03:04:40.627Z,99.90
2022-08-16T03:07:06.212Z,99.90
2022-08-16T03:09:34.550Z,99.90
2022-08-16T03:12:03.606Z,99.90
2022-08-16T03:14:33.482Z,99.90
2022-08-16T03:17:02.203Z,99.90
2022-08-16T03:19:47.052Z,99.90
2022-08-16T03:22:28.057Z,99.90
2022-08-16T03:24:57.256Z,99.90
2022-08-16T03:27:30.804Z,99.90
2022-08-16T03:30:01.204Z,99.90
2022-08-16T03:32:29.996Z,99.90
2022-08-16T03:34:57.714Z,99.90
2022-08-16T03:37:25.507Z,99.90
2022-08-16T03:39:56.477Z,99.90
2022-08-16T03:42:30.332Z,99.90
2022-08-16T03:45:03.047Z,99.90
2022-08-16T03:47:34.920Z,99.90
2022-08-16T03:50:03.821Z,99.90
2022-08-16T03:52:51.618Z,99.90
2022-08-16T03:55:28.948Z,99.90
2022-08-16T03:58:13.781Z,99.90
2022-08-16T04:00:42.233Z,99.90
2022-08-16T04:03:11.543Z,99.90
2022-08-16T04:05:44.192Z,99.90
2022-08-16T04:08:22.305Z,99.90
2022-08-16T04:10:53.481Z,99.90
2022-08-16T04:14:00.192Z,99.90
2022-08-16T04:16:26.322Z,99.90
2022-08-16T04:19:02.132Z,99.90
2022-08-16T04:21:32.003Z,99.90
2022-08-16T04:24:00.359Z,99.90
2022-08-16T04:26:30.985Z,99.90
2022-08-16T04:29:16.599Z,99.90
2022-08-16T04:31:56.029Z,99.90
2022-08-16T04:34:28.592Z,99.90
2022-08-16T04:36:57.711Z,99.90
2022-08-16T04:39:37.178Z,99.90
2022-08-16T04:42:13.946Z,99.90
2022-08-16T04:44:54.320Z,99.90
2022-08-16T04:47:31.273Z,99.90
2022-08-16T04:50:03.004Z,99.90
2022-08-16T04:52:35.012Z,99.90
2022-08-16T04:55:08.702Z,99.90
2022-08-16T04:57:38.740Z,99.90
2022-08-16T05:00:31.969Z,99.90
2022-08-16T05:03:01.026Z,99.90
2022-08-16T05:05:36.678Z,99.90
2022-08-16T05:08:29.675Z,99.90
2022-08-16T05:10:59.850Z,99.90
2022-08-16T05:13:40.938Z,99.90
2022-08-16T05:16:11.712Z,99.90
2022-08-16T05:18:39.867Z,99.90
2022-08-16T05:21:12.597Z,99.90
2022-08-16T05:23:40.793Z,99.90
2022-08-16T05:26:19.611Z,99.90
2022-08-16T05:28:55.258Z,99.90
2022-08-16T05:31:23.344Z,99.90
2022-08-16T05:33:53.670Z,99.90
2022-08-16T05:36:24.881Z,99.90
2022-08-16T05:39:02.395Z,99.90
2022-08-16T05:41:30.604Z,99.90
2022-08-16T05:44:00.310Z,99.90
2022-08-16T05:46:33.779Z,99.90
2022-08-16T05:49:08.511Z,99.90
2022-08-16T05:51:40.056Z,99.90
2022-08-16T05:54:09.643Z,99.90
2022-08-16T05:56:39.913Z,99.90
2022-08-16T05:59:08.469Z,99.90
2022-08-16T06:01:38.261Z,99.90
2022-08-16T06:04:13.290Z,99.90
2022-08-16T06:06:57.429Z,99.90
2022-08-16T06:09:42.559Z,99.90
2022-08-16T06:12:12.674Z,99.90
2022-08-16T06:14:58.431Z,99.90
2022-08-16T06:17:42.532Z,99.90
2022-08-16T06:20:15.048Z,99.90
2022-08-16T06:22:57.476Z,99.90
2022-08-16T06:25:36.369Z,99.90
2022-08-16T06:28:08.948Z,99.90
2022-08-16T06:30:43.822Z,99.90
2022-08-16T06:33:12.843Z,99.90
2022-08-16T06:35:47.491Z,99.90
2022-08-16T06:38:32.008Z,99.90
2022-08-16T06:41:00.963Z,99.90
2022-08-16T06:43:30.267Z,99.90
2022-08-16T06:45:58.026Z,99.90
2022-08-16T06:48:32.893Z,99.90
2022-08-16T06:51:02.712Z,99.90
2022-08-16T06:53:33.799Z,99.90
2022-08-16T06:56:14.330Z,99.90
2022-08-16T06:58:51.217Z,99.90
2022-08-16T07:01:24.337Z,99.90
2022-08-16T07:04:11.979Z,99.90
2022-08-16T07:06:43.319Z,99.90
2022-08-16T07:09:15.769Z,99.90
2022-08-16T07:11:47.741Z,99.90
2022-08-16T07:14:24.375Z,99.90
2022-08-16T07:16:53.369Z,99.90
2022-08-16T07:19:21.137Z,99.90
2022-08-16T07:21:59.668Z,99.90
2022-08-16T07:24:30.730Z,99.90
2022-08-16T07:27:00.531Z,99.90
2022-08-16T07:29:31.854Z,99.90
2022-08-16T07:32:00.902Z,99.90
2022-08-16T07:34:34.798Z,99.90
2022-08-16T07:37:09.684Z,99.90
2022-08-16T07:39:43.427Z,99.90
2022-08-16T07:42:25.989Z,99.90
2022-08-16T07:45:00.316Z,99.90
2022-08-16T07:47:31.960Z,99.90
2022-08-16T07:50:05.358Z,99.90
2022-08-16T07:52:39.004Z,99.90
2022-08-16T07:55:10.719Z,99.90
2022-08-16T07:57:55.799Z,99.90
2022-08-16T08:00:26.798Z,99.90
2022-08-16T08:02:55.579Z,99.90
2022-08-16T08:05:35.847Z,99.90
2022-08-16T08:08:12.003Z,99.90
2022-08-16T08:10:55.069Z,99.90
2022-08-16T08:13:42.731Z,99.90
2022-08-16T08:16:19.033Z,99.90
2022-08-16T08:18:50.164Z,99.90
2022-08-16T08:21:19.531Z,99.90
2022-08-16T08:23:56.461Z,99.90
2022-08-16T08:26:26.180Z,99.90
2022-08-16T08:29:00.700Z,99.90
2022-08-16T08:31:29.099Z,99.90
2022-08-16T08:33:58.504Z,99.90
2022-08-16T08:36:33.614Z,99.90
2022-08-16T08:39:02.680Z,99.90
2022-08-16T08:41:42.453Z,91.70
2022-08-16T08:44:28.969Z,81.90
2022-08-16T08:47:00.619Z,72.40
2022-08-16T08:49:47.059Z,66.50
2022-08-16T08:52:35.052Z,62.90
2022-08-16T08:55:09.296Z,59.30
2022-08-16T08:57:41.731Z,58.30
2022-08-16T09:00:13.110Z,56.20
2022-08-16T09:02:44.449Z,55.60
2022-08-16T09:05:15.402Z,54.00
2022-08-16T09:08:01.830Z,53.30
2022-08-16T09:10:33.782Z,50.40
2022-08-16T09:13:06.110Z,51.90
2022-08-16T09:15:36.144Z,49.30
2022-08-16T09:18:25.052Z,50.50
2022-08-16T09:20:58.902Z,50.00
2022-08-16T09:23:28.204Z,50.40
2022-08-16T09:25:56.080Z,50.60
2022-08-16T09:29:15.788Z,48.50
2022-08-16T09:31:13.496Z,48.30
2022-08-16T09:33:42.303Z,47.20
2022-08-16T09:36:12.330Z,44.80
2022-08-16T09:39:01.083Z,44.80
2022-08-16T09:41:29.048Z,46.60
2022-08-16T09:44:02.486Z,46.00
2022-08-16T09:46:49.426Z,44.00
2022-08-16T09:49:19.719Z,44.20
2022-08-16T09:51:54.486Z,45.00
2022-08-16T09:54:24.746Z,45.00
2022-08-16T09:57:00.827Z,45.20
2022-08-16T09:59:31.230Z,45.00
2022-08-16T10:02:26.455Z,45.20
2022-08-16T10:04:55.762Z,43.90
2022-08-16T10:07:23.793Z,42.70
2022-08-16T10:09:54.938Z,44.40
2022-08-16T10:12:43.402Z,43.50
2022-08-16T10:15:16.634Z,43.20
2022-08-16T10:18:00.290Z,42.50
2022-08-16T10:20:31.795Z,42.70
2022-08-16T10:23:05.873Z,43.10
2022-08-16T10:27:19.832Z,41.60
2022-08-16T10:28:29.138Z,44.00
2022-08-16T10:30:59.590Z,44.60
2022-08-16T10:33:29.415Z,43.20
2022-08-16T10:36:03.024Z,43.70
2022-08-16T10:38:33.225Z,42.80
2022-08-16T10:41:05.483Z,43.80
2022-08-16T10:43:35.443Z,42.00
2022-08-16T10:46:40.097Z,43.30
2022-08-16T10:48:56.060Z,45.50
2022-08-16T10:51:34.601Z,46.70
2022-08-16T10:54:29.499Z,47.50
2022-08-16T10:56:58.282Z,47.50
2022-08-16T10:59:38.538Z,51.50
2022-08-16T11:02:59.635Z,53.70
2022-08-16T11:05:08.942Z,56.50
2022-08-16T11:07:51.609Z,60.70
2022-08-16T11:13:57.309Z,64.80
2022-08-16T11:16:25.487Z,65.30
2022-08-16T11:19:05.663Z,63.10
2022-08-16T11:22:23.263Z,63.00
2022-08-16T11:24:42.039Z,61.10
2022-08-16T11:27:23.455Z,64.70
2022-08-16T11:29:54.996Z,63.20
2022-08-16T11:32:31.508Z,62.40
2022-08-16T11:35:10.565Z,65.00
2022-08-16T11:40:32.864Z,61.30
2022-08-16T11:43:01.458Z,64.80
2022-08-16T11:45:33.926Z,63.10
2022-08-16T11:48:03.454Z,63.10
2022-08-16T11:50:33.695Z,61.40
2022-08-16T11:53:02.399Z,62.90
2022-08-16T11:55:32.743Z,63.10
2022-08-16T11:58:01.269Z,62.90
2022-08-16T12:00:37.532Z,60.50
2022-08-16T12:03:19.243Z,60.50
2022-08-16T12:05:51.793Z,59.90
2022-08-16T12:08:20.570Z,61.60
2022-08-16T12:10:55.264Z,59.40
2022-08-16T12:13:27.421Z,59.80
2022-08-16T12:15:55.906Z,60.60
2022-08-16T12:18:24.611Z,56.90
2022-08-16T12:20:55.297Z,59.30
2022-08-16T12:23:26.093Z,58.90
2022-08-16T12:25:54.333Z,59.40
2022-08-16T12:28:25.372Z,58.70
2022-08-16T12:31:05.528Z,58.70
2022-08-16T12:33:44.440Z,59.80
2022-08-16T12:36:16.933Z,57.60
2022-08-16T12:38:48.635Z,57.80
2022-08-16T12:41:25.139Z,57.70
2022-08-16T12:43:57.253Z,59.20
2022-08-16T12:46:29.247Z,59.20
2022-08-16T12:48:58.455Z,59.10
2022-08-16T12:51:57.570Z,59.30
2022-08-16T12:54:20.000Z,58.30
2022-08-16T12:56:48.135Z,58.90
2022-08-16T12:59:20.343Z,57.00
2022-08-16T13:01:50.594Z,57.30
2022-08-16T13:04:24.614Z,58.90
2022-08-16T13:06:54.378Z,58.80
2022-08-16T13:09:26.419Z,57.60
2022-08-16T13:12:03.518Z,56.60
2022-08-16T13:14:34.952Z,56.40
2022-08-16T13:17:06.618Z,56.60
2022-08-16T13:19:56.316Z,54.90
2022-08-16T13:22:25.333Z,55.00
2022-08-16T13:24:53.914Z,57.00
2022-08-16T13:27:34.965Z,57.20
2022-08-16T13:30:35.377Z,57.00
2022-08-16T13:32:59.534Z,58.90
2022-08-16T13:35:34.459Z,64.30
2022-08-16T13:38:04.021Z,61.10
2022-08-16T13:40:34.249Z,59.80
2022-08-16T13:43:02.827Z,58.60
2022-08-16T13:45:45.191Z,57.20
2022-08-16T13:48:21.898Z,57.70
2022-08-16T13:50:53.850Z,61.40
2022-08-16T13:53:24.433Z,60.30
2022-08-16T13:55:57.763Z,60.30
2022-08-16T13:58:36.829Z,60.10
2022-08-16T14:01:09.539Z,61.90
2022-08-16T14:03:38.481Z,60.50
2022-08-16T14:06:07.812Z,60.80
2022-08-16T14:08:42.220Z,61.30
2022-08-16T14:11:11.735Z,61.80
2022-08-16T14:13:40.376Z,61.30
2022-08-16T14:16:23.447Z,62.20
2022-08-16T14:18:53.052Z,60.50
2022-08-16T14:21:23.693Z,59.10
2022-08-16T14:23:53.329Z,58.80
2022-08-16T14:26:21.631Z,58.10
2022-08-16T14:28:53.122Z,58.10
2022-08-16T14:31:22.353Z,59.50
2022-08-16T14:33:51.369Z,58.80
2022-08-16T14:36:29.922Z,59.50
2022-08-16T14:38:59.836Z,60.00
2022-08-16T14:41:27.953Z,59.20
2022-08-16T14:43:56.259Z,59.80
2022-08-16T14:46:24.634Z,58.20
2022-08-16T14:48:52.400Z,57.00
2022-08-16T14:51:22.728Z,58.40
2022-08-16T14:53:55.058Z,59.80
2022-08-16T14:56:38.948Z,58.20
2022-08-16T14:59:11.201Z,59.00
2022-08-16T15:01:59.815Z,60.40
2022-08-16T15:04:32.625Z,60.80
2022-08-16T15:07:21.699Z,60.20
2022-08-16T15:10:00.866Z,57.50
2022-08-16T15:12:33.421Z,58.90
2022-08-16T15:15:04.395Z,58.00
2022-08-16T15:17:40.444Z,58.10
2022-08-16T15:20:09.746Z,57.50
2022-08-16T15:22:39.428Z,58.00
2022-08-16T15:25:10.589Z,59.00
2022-08-16T15:27:42.182Z,58.70
2022-08-16T15:30:47.827Z,58.80
2022-08-16T15:33:05.051Z,58.80
2022-08-16T15:35:33.468Z,58.40
2022-08-16T15:38:09.064Z,58.30
2022-08-16T15:40:57.480Z,58.80
2022-08-16T15:43:38.904Z,58.30
2022-08-16T15:46:35.593Z,59.00
2022-08-16T15:49:14.764Z,60.00
2022-08-16T15:51:44.815Z,60.20
2022-08-16T15:54:21.314Z,60.70
2022-08-16T15:57:02.720Z,61.20
2022-08-16T15:59:49.309Z,61.80
2022-08-16T16:02:27.618Z,60.70
2022-08-16T16:04:58.214Z,60.10
2022-08-16T16:07:30.272Z,60.40
2022-08-16T16:09:59.235Z,63.40
2022-08-16T16:15:17.065Z,62.90
2022-08-16T16:17:51.228Z,63.50
2022-08-16T16:20:21.208Z,62.00
2022-08-16T16:22:49.349Z,65.10
2022-08-16T16:25:19.160Z,62.90
2022-08-16T16:27:55.974Z,62.90
2022-08-16T16:30:38.248Z,61.10
2022-08-16T16:33:15.790Z,67.00
2022-08-16T16:35:55.692Z,64.80
2022-08-16T16:38:28.814Z,66.60
2022-08-16T16:40:57.031Z,69.60
2022-08-16T16:43:31.097Z,67.00
2022-08-16T16:46:02.099Z,70.60
2022-08-16T16:48:34.984Z,74.80
2022-08-16T16:51:09.421Z,69.80
2022-08-16T16:53:43.411Z,72.70
2022-08-16T16:56:20.167Z,70.80
2022-08-16T16:58:58.045Z,67.90
2022-08-16T17:02:00.082Z,77.00
2022-08-16T17:04:31.449Z,75.70
2022-08-16T17:07:00.614Z,75.70
2022-08-16T17:09:28.353Z,77.20
2022-08-16T17:11:57.986Z,79.70
2022-08-16T17:14:32.724Z,80.50
2022-08-16T17:17:06.682Z,80.30
2022-08-16T17:19:40.833Z,80.10
2022-08-16T17:22:13.898Z,81.10
2022-08-16T17:24:44.911Z,82.30
2022-08-16T17:27:18.050Z,80.90
2022-08-16T17:29:47.547Z,81.20
2022-08-16T17:32:34.243Z,81.60
2022-08-16T17:35:17.856Z,83.30
2022-08-16T17:37:51.040Z,85.50
2022-08-16T17:40:40.529Z,83.20
2022-08-16T17:43:10.236Z,86.20
2022-08-16T17:45:39.271Z,85.80
2022-08-16T17:48:08.833Z,87.90
2022-08-16T17:50:36.681Z,99.90
2022-08-16T17:53:06.337Z,99.90
2022-08-16T17:55:37.578Z,99.90
2022-08-16T17:58:09.680Z,99.90
2022-08-16T18:00:52.154Z,99.90
2022-08-16T18:04:08.201Z,99.90
2022-08-16T18:06:15.696Z,99.90
2022-08-16T18:08:43.578Z,99.90
2022-08-16T18:11:13.245Z,99.90
2022-08-16T18:13:43.147Z,99.90
2022-08-16T18:16:11.878Z,99.90
2022-08-16T18:18:41.012Z,99.90
2022-08-16T18:21:26.431Z,99.90
2022-08-16T18:23:54.269Z,99.90
2022-08-16T18:26:22.159Z,99.90
2022-08-16T18:28:50.487Z,99.90
2022-08-16T18:31:18.241Z,99.90
2022-08-16T18:33:47.358Z,99.90
2022-08-16T18:36:21.107Z,99.90
2022-08-16T18:38:50.200Z,99.90
2022-08-16T18:41:18.241Z,99.90
2022-08-16T18:44:22.549Z,99.90
2022-08-16T18:46:33.807Z,99.90
2022-08-16T18:49:02.899Z,99.90
2022-08-16T18:51:31.675Z,99.90
2022-08-16T18:53:59.455Z,99.90
2022-08-16T18:56:56.437Z,99.90
2022-08-16T18:59:15.186Z,99.90
2022-08-16T19:01:43.155Z,99.90
2022-08-16T19:04:56.196Z,99.90
2022-08-16T19:07:00.051Z,99.90
2022-08-16T19:09:27.830Z,99.90
2022-08-16T19:11:55.653Z,99.90
2022-08-16T19:14:29.933Z,99.90
2022-08-16T19:16:57.717Z,99.90
2022-08-16T19:19:26.790Z,99.90
2022-08-16T19:21:54.887Z,99.90
2022-08-16T19:24:22.622Z,99.90
2022-08-16T19:26:57.214Z,99.90
2022-08-16T19:29:25.264Z,99.90
2022-08-16T19:31:53.079Z,99.90
2022-08-16T19:34:21.061Z,99.90
2022-08-16T19:36:50.296Z,99.90
2022-08-16T19:39:18.741Z,99.90
2022-08-16T19:41:53.711Z,99.90
2022-08-16T19:44:22.594Z,99.90
2022-08-16T19:46:50.456Z,99.90
2022-08-16T19:49:18.419Z,99.90
2022-08-16T19:51:47.069Z,99.90
2022-08-16T19:54:17.512Z,99.90
2022-08-16T19:56:45.280Z,99.90
2022-08-16T19:59:19.883Z,99.90
2022-08-16T20:01:51.111Z,99.90
2022-08-16T20:04:19.118Z,99.90
2022-08-16T20:06:47.174Z,99.90
2022-08-16T20:09:16.428Z,99.90
2022-08-16T20:11:45.216Z,99.90
2022-08-16T20:14:24.686Z,99.90
2022-08-16T20:16:55.636Z,99.90
2022-08-16T20:19:23.559Z,99.90
2022-08-16T20:21:51.488Z,99.90
2022-08-16T20:24:34.104Z,99.90
2022-08-16T20:27:03.618Z,99.90
2022-08-16T20:29:31.495Z,99.90
2022-08-16T20:31:59.297Z,99.90
2022-08-16T20:34:27.092Z,99.90
2022-08-16T20:36:54.871Z,99.90
2022-08-16T20:39:24.181Z,99.90
2022-08-16T20:41:52.729Z,99.90
2022-08-16T20:44:22.918Z,99.90
2022-08-16T20:46:52.914Z,99.90
2022-08-16T20:49:20.651Z,99.90
2022-08-16T20:51:50.630Z,99.90
2022-08-16T20:54:22.886Z,99.90
2022-08-16T20:56:50.731Z,99.90
2022-08-16T20:59:18.495Z,99.90
2022-08-16T21:01:50.200Z,99.90
2022-08-16T21:04:19.062Z,99.90
2022-08-16T21:06:54.331Z,99.90
2022-08-16T21:09:25.996Z,99.90
2022-08-16T21:11:55.474Z,99.90
2022-08-16T21:14:23.393Z,99.90
2022-08-16T21:16:51.535Z,99.90
2022-08-16T21:19:19.474Z,99.90
2022-08-16T21:21:47.516Z,99.90
2022-08-16T21:24:15.606Z,99.90
2022-08-16T21:26:49.792Z,99.90
2022-08-16T21:29:24.927Z,99.90
2022-08-16T21:31:54.994Z,99.90
2022-08-16T21:34:23.756Z,99.90
2022-08-16T21:36:51.491Z,99.90
2022-08-16T21:39:19.200Z,99.90
2022-08-16T21:41:48.263Z,99.90
2022-08-16T21:44:15.980Z,99.90
2022-08-16T21:46:43.736Z,99.90
2022-08-16T21:49:11.491Z,99.90
2022-08-16T21:51:39.257Z,99.90
2022-08-16T21:54:07.080Z,99.90
2022-08-16T21:56:34.885Z,99.90
2022-08-16T21:59:10.630Z,99.90
2022-08-16T22:01:41.286Z,99.90
2022-08-16T22:04:36.824Z,99.90
2022-08-16T22:06:57.819Z,99.90
2022-08-16T22:09:26.468Z,99.90
2022-08-16T22:11:54.595Z,99.90
2022-08-16T22:14:23.674Z,99.90
2022-08-16T22:16:51.567Z,99.90
2022-08-16T22:19:19.306Z,99.90
2022-08-16T22:21:47.207Z,99.90
2022-08-16T22:24:14.922Z,99.90
2022-08-16T22:26:43.662Z,99.90
2022-08-16T22:29:14.442Z,99.90
2022-08-16T22:31:44.398Z,99.90
2022-08-16T22:34:12.681Z,99.90
2022-08-16T22:36:40.804Z,99.90
2022-08-16T22:39:11.952Z,99.90
2022-08-16T22:41:42.112Z,99.90
2022-08-16T22:44:10.102Z,99.90
2022-08-16T22:46:38.007Z,99.90
2022-08-16T22:49:07.919Z,99.90
2022-08-16T22:51:37.329Z,99.90
2022-08-16T22:54:39.297Z,99.90
2022-08-16T22:56:54.139Z,99.90
2022-08-16T22:59:24.806Z,99.90
2022-08-16T23:01:52.737Z,99.90
2022-08-16T23:04:21.903Z,99.90
2022-08-16T23:06:49.664Z,99.90
2022-08-16T23:09:17.429Z,99.90
2022-08-16T23:11:45.192Z,99.90
2022-08-16T23:14:12.931Z,99.90
2022-08-16T23:16:40.666Z,99.90
2022-08-16T23:19:10.985Z,99.90
2022-08-16T23:21:44.256Z,99.90
2022-08-16T23:24:12.995Z,99.90
2022-08-16T23:26:45.975Z,99.90
2022-08-16T23:29:24.803Z,99.90
2022-08-16T23:31:59.275Z,99.90
2022-08-16T23:34:29.378Z,99.90
2022-08-16T23:36:58.826Z,99.90
2022-08-16T23:39:27.020Z,99.90
2022-08-16T23:41:55.682Z,99.90
2022-08-16T23:44:55.358Z,99.90
2022-08-16T23:47:11.800Z,99.90
2022-08-16T23:49:59.065Z,99.90
2022-08-16T23:52:54.639Z,99.90
2022-08-16T23:55:17.257Z,99.90
2022-08-16T23:57:46.040Z,99.90
